sensor_id;sensor_type;location;lat;lon;timestamp;temperature;humidity
4374;DHT22;2201;51.100;6.814;2024-02-26T00:01:50;8.00;98.20
4374;DHT22;2201;51.100;6.814;2024-02-26T00:04:18;8.00;98.20
4374;DHT22;2201;51.100;6.814;2024-02-26T00:06:44;8.00;98.20
4374;DHT22;2201;51.100;6.814;2024-02-26T00:09:11;8.10;98.20
4374;DHT22;2201;51.100;6.814;2024-02-26T00:11:38;8.10;98.20
4374;DHT22;2201;51.100;6.814;2024-02-26T00:14:05;8.10;98.20
4374;DHT22;2201;51.100;6.814;2024-02-26T00:16:33;8.10;98.20
4374;DHT22;2201;51.100;6.814;2024-02-26T00:19:00;8.10;98.20
4374;DHT22;2201;51.100;6.814;2024-02-26T00:21:27;8.10;98.20
4374;DHT22;2201;51.100;6.814;2024-02-26T00:23:54;8.00;98.20
4374;DHT22;2201;51.100;6.814;2024-02-26T00:26:21;8.00;98.20
4374;DHT22;2201;51.100;6.814;2024-02-26T00:28:48;8.00;98.20
4374;DHT22;2201;51.100;6.814;2024-02-26T00:31:15;8.00;98.20
4374;DHT22;2201;51.100;6.814;2024-02-26T00:33:43;8.00;98.20
4374;DHT22;2201;51.100;6.814;2024-02-26T00:36:09;8.00;98.20
4374;DHT22;2201;51.100;6.814;2024-02-26T00:38:37;7.90;98.20
4374;DHT22;2201;51.100;6.814;2024-02-26T00:41:04;7.90;98.20
4374;DHT22;2201;51.100;6.814;2024-02-26T00:43:31;7.90;98.20
4374;DHT22;2201;51.100;6.814;2024-02-26T00:45:58;7.80;98.20
4374;DHT22;2201;51.100;6.814;2024-02-26T00:48:25;7.80;98.20
4374;DHT22;2201;51.100;6.814;2024-02-26T00:50:53;7.80;98.20
4374;DHT22;2201;51.100;6.814;2024-02-26T00:53:20;7.70;98.20
4374;DHT22;2201;51.100;6.814;2024-02-26T00:55:47;7.70;98.20
4374;DHT22;2201;51.100;6.814;2024-02-26T00:58:13;7.70;98.20
4374;DHT22;2201;51.100;6.814;2024-02-26T01:00:40;7.70;98.20
4374;DHT22;2201;51.100;6.814;2024-02-26T01:03:07;7.70;98.20
4374;DHT22;2201;51.100;6.814;2024-02-26T01:05:35;7.70;98.20
4374;DHT22;2201;51.100;6.814;2024-02-26T01:08:05;7.60;98.20
4374;DHT22;2201;51.100;6.814;2024-02-26T01:10:32;7.60;98.20
4374;DHT22;2201;51.100;6.814;2024-02-26T01:12:59;7.60;98.20
4374;DHT22;2201;51.100;6.814;2024-02-26T01:15:26;7.60;98.20
4374;DHT22;2201;51.100;6.814;2024-02-26T01:17:53;7.60;98.20
4374;DHT22;2201;51.100;6.814;2024-02-26T01:20:20;7.60;98.20
4374;DHT22;2201;51.100;6.814;2024-02-26T01:22:47;7.60;98.20
4374;DHT22;2201;51.100;6.814;2024-02-26T01:25:15;7.60;98.20
4374;DHT22;2201;51.100;6.814;2024-02-26T01:27:42;7.60;98.20
4374;DHT22;2201;51.100;6.814;2024-02-26T01:30:10;7.60;98.20
4374;DHT22;2201;51.100;6.814;2024-02-26T01:32:37;7.60;98.20
4374;DHT22;2201;51.100;6.814;2024-02-26T01:35:04;7.60;98.20
4374;DHT22;2201;51.100;6.814;2024-02-26T01:37:33;7.60;98.20
4374;DHT22;2201;51.100;6.814;2024-02-26T01:39:59;7.60;98.20
4374;DHT22;2201;51.100;6.814;2024-02-26T01:42:31;7.50;98.20
4374;DHT22;2201;51.100;6.814;2024-02-26T01:44:58;7.50;98.20
4374;DHT22;2201;51.100;6.814;2024-02-26T01:47:26;7.50;98.20
4374;DHT22;2201;51.100;6.814;2024-02-26T01:49:54;7.50;98.20
4374;DHT22;2201;51.100;6.814;2024-02-26T01:52:21;7.50;98.20
4374;DHT22;2201;51.100;6.814;2024-02-26T01:54:48;7.40;98.20
4374;DHT22;2201;51.100;6.814;2024-02-26T01:57:16;7.40;98.20
4374;DHT22;2201;51.100;6.814;2024-02-26T01:59:45;7.40;98.20
4374;DHT22;2201;51.100;6.814;2024-02-26T02:02:12;7.40;98.20
4374;DHT22;2201;51.100;6.814;2024-02-26T02:04:40;7.30;98.20
4374;DHT22;2201;51.100;6.814;2024-02-26T02:07:07;7.30;98.20
4374;DHT22;2201;51.100;6.814;2024-02-26T02:09:34;7.30;98.20
4374;DHT22;2201;51.100;6.814;2024-02-26T02:12:01;7.30;98.20
4374;DHT22;2201;51.100;6.814;2024-02-26T02:14:28;7.30;98.20
4374;DHT22;2201;51.100;6.814;2024-02-26T02:16:56;7.30;98.20
4374;DHT22;2201;51.100;6.814;2024-02-26T02:19:23;7.30;98.20
4374;DHT22;2201;51.100;6.814;2024-02-26T02:21:51;7.20;98.20
4374;DHT22;2201;51.100;6.814;2024-02-26T02:24:18;7.20;98.20
4374;DHT22;2201;51.100;6.814;2024-02-26T02:26:45;7.20;98.20
4374;DHT22;2201;51.100;6.814;2024-02-26T02:29:12;7.20;98.20
4374;DHT22;2201;51.100;6.814;2024-02-26T02:31:39;7.20;98.20
4374;DHT22;2201;51.100;6.814;2024-02-26T02:34:06;7.20;98.20
4374;DHT22;2201;51.100;6.814;2024-02-26T02:36:32;7.20;98.20
4374;DHT22;2201;51.100;6.814;2024-02-26T02:39:01;7.10;98.20
4374;DHT22;2201;51.100;6.814;2024-02-26T02:41:28;7.10;98.20
4374;DHT22;2201;51.100;6.814;2024-02-26T02:43:55;7.20;98.20
4374;DHT22;2201;51.100;6.814;2024-02-26T02:46:23;7.10;98.20
4374;DHT22;2201;51.100;6.814;2024-02-26T02:48:49;7.10;98.20
4374;DHT22;2201;51.100;6.814;2024-02-26T02:51:16;7.10;98.20
4374;DHT22;2201;51.100;6.814;2024-02-26T02:53:43;7.10;98.20
4374;DHT22;2201;51.100;6.814;2024-02-26T02:56:11;7.10;98.20
4374;DHT22;2201;51.100;6.814;2024-02-26T02:58:38;7.10;98.20
4374;DHT22;2201;51.100;6.814;2024-02-26T03:01:05;7.10;98.20
4374;DHT22;2201;51.100;6.814;2024-02-26T03:03:31;7.10;98.20
4374;DHT22;2201;51.100;6.814;2024-02-26T03:05:58;7.10;98.20
4374;DHT22;2201;51.100;6.814;2024-02-26T03:08:25;7.10;98.20
4374;DHT22;2201;51.100;6.814;2024-02-26T03:10:52;7.10;98.20
4374;DHT22;2201;51.100;6.814;2024-02-26T03:13:20;7.10;98.20
4374;DHT22;2201;51.100;6.814;2024-02-26T03:15:47;7.10;98.20
4374;DHT22;2201;51.100;6.814;2024-02-26T03:18:14;7.10;98.20
4374;DHT22;2201;51.100;6.814;2024-02-26T03:20:41;7.10;98.20
4374;DHT22;2201;51.100;6.814;2024-02-26T03:23:07;7.10;98.20
4374;DHT22;2201;51.100;6.814;2024-02-26T03:25:38;7.10;98.20
4374;DHT22;2201;51.100;6.814;2024-02-26T03:28:05;7.10;98.20
4374;DHT22;2201;51.100;6.814;2024-02-26T03:30:33;7.10;98.20
4374;DHT22;2201;51.100;6.814;2024-02-26T03:33:01;7.10;98.20
4374;DHT22;2201;51.100;6.814;2024-02-26T03:35:28;7.10;98.20
4374;DHT22;2201;51.100;6.814;2024-02-26T03:37:55;7.10;98.20
4374;DHT22;2201;51.100;6.814;2024-02-26T03:40:21;7.10;98.20
4374;DHT22;2201;51.100;6.814;2024-02-26T03:42:48;7.10;98.20
4374;DHT22;2201;51.100;6.814;2024-02-26T03:45:15;7.10;98.20
4374;DHT22;2201;51.100;6.814;2024-02-26T03:47:43;7.10;98.20
4374;DHT22;2201;51.100;6.814;2024-02-26T03:50:10;7.10;98.20
4374;DHT22;2201;51.100;6.814;2024-02-26T03:52:38;7.10;98.20
4374;DHT22;2201;51.100;6.814;2024-02-26T03:55:05;7.10;98.20
4374;DHT22;2201;51.100;6.814;2024-02-26T03:57:32;7.10;98.20
4374;DHT22;2201;51.100;6.814;2024-02-26T03:59:58;7.10;98.20
4374;DHT22;2201;51.100;6.814;2024-02-26T04:02:25;7.10;98.20
4374;DHT22;2201;51.100;6.814;2024-02-26T04:04:53;7.10;98.20
4374;DHT22;2201;51.100;6.814;2024-02-26T04:07:20;7.00;98.20
4374;DHT22;2201;51.100;6.814;2024-02-26T04:09:47;7.10;98.20
4374;DHT22;2201;51.100;6.814;2024-02-26T04:12:14;7.10;98.20
4374;DHT22;2201;51.100;6.814;2024-02-26T04:14:40;7.00;98.20
4374;DHT22;2201;51.100;6.814;2024-02-26T04:17:07;7.10;98.20
4374;DHT22;2201;51.100;6.814;2024-02-26T04:19:34;7.10;98.20
4374;DHT22;2201;51.100;6.814;2024-02-26T04:22:02;7.10;98.20
4374;DHT22;2201;51.100;6.814;2024-02-26T04:24:29;7.00;98.20
4374;DHT22;2201;51.100;6.814;2024-02-26T04:26:56;7.00;98.20
4374;DHT22;2201;51.100;6.814;2024-02-26T04:29:23;7.10;98.20
4374;DHT22;2201;51.100;6.814;2024-02-26T04:31:50;7.10;98.20
4374;DHT22;2201;51.100;6.814;2024-02-26T04:34:17;7.10;98.20
4374;DHT22;2201;51.100;6.814;2024-02-26T04:36:43;7.10;98.20
4374;DHT22;2201;51.100;6.814;2024-02-26T04:39:12;7.10;98.20
4374;DHT22;2201;51.100;6.814;2024-02-26T04:41:38;7.10;98.20
4374;DHT22;2201;51.100;6.814;2024-02-26T04:44:05;7.10;98.20
4374;DHT22;2201;51.100;6.814;2024-02-26T04:46:32;7.10;98.20
4374;DHT22;2201;51.100;6.814;2024-02-26T04:48:59;7.10;98.20
4374;DHT22;2201;51.100;6.814;2024-02-26T04:51:25;7.10;98.20
4374;DHT22;2201;51.100;6.814;2024-02-26T04:53:52;7.00;98.20
4374;DHT22;2201;51.100;6.814;2024-02-26T04:56:21;7.00;98.20
4374;DHT22;2201;51.100;6.814;2024-02-26T04:58:48;7.00;98.20
4374;DHT22;2201;51.100;6.814;2024-02-26T05:01:15;7.00;98.20
4374;DHT22;2201;51.100;6.814;2024-02-26T05:03:42;7.00;98.20
4374;DHT22;2201;51.100;6.814;2024-02-26T05:06:09;6.90;98.20
4374;DHT22;2201;51.100;6.814;2024-02-26T05:08:36;6.90;98.20
4374;DHT22;2201;51.100;6.814;2024-02-26T05:11:04;6.90;98.20
4374;DHT22;2201;51.100;6.814;2024-02-26T05:13:32;6.90;98.20
4374;DHT22;2201;51.100;6.814;2024-02-26T05:15:59;6.90;98.20
4374;DHT22;2201;51.100;6.814;2024-02-26T05:18:27;6.90;98.20
4374;DHT22;2201;51.100;6.814;2024-02-26T05:20:54;6.90;98.20
4374;DHT22;2201;51.100;6.814;2024-02-26T05:23:21;6.90;98.20
4374;DHT22;2201;51.100;6.814;2024-02-26T05:25:49;7.00;98.20
4374;DHT22;2201;51.100;6.814;2024-02-26T05:28:15;7.00;98.20
4374;DHT22;2201;51.100;6.814;2024-02-26T05:30:47;7.00;98.20
4374;DHT22;2201;51.100;6.814;2024-02-26T05:33:14;7.00;98.20
4374;DHT22;2201;51.100;6.814;2024-02-26T05:35:41;7.00;98.20
4374;DHT22;2201;51.100;6.814;2024-02-26T05:38:08;7.00;98.20
4374;DHT22;2201;51.100;6.814;2024-02-26T05:40:35;7.00;98.20
4374;DHT22;2201;51.100;6.814;2024-02-26T05:43:02;7.00;98.20
4374;DHT22;2201;51.100;6.814;2024-02-26T05:45:28;7.00;98.20
4374;DHT22;2201;51.100;6.814;2024-02-26T05:47:57;6.90;98.20
4374;DHT22;2201;51.100;6.814;2024-02-26T05:50:24;7.00;98.20
4374;DHT22;2201;51.100;6.814;2024-02-26T05:52:51;6.90;98.20
4374;DHT22;2201;51.100;6.814;2024-02-26T05:55:18;6.90;98.20
4374;DHT22;2201;51.100;6.814;2024-02-26T05:57:44;6.90;98.20
4374;DHT22;2201;51.100;6.814;2024-02-26T06:00:12;6.90;98.20
4374;DHT22;2201;51.100;6.814;2024-02-26T06:02:39;6.90;98.20
4374;DHT22;2201;51.100;6.814;2024-02-26T06:05:07;6.90;98.20
4374;DHT22;2201;51.100;6.814;2024-02-26T06:07:35;6.90;98.20
4374;DHT22;2201;51.100;6.814;2024-02-26T06:10:02;6.90;98.20
4374;DHT22;2201;51.100;6.814;2024-02-26T06:12:30;6.90;98.20
4374;DHT22;2201;51.100;6.814;2024-02-26T06:14:58;6.80;98.20
4374;DHT22;2201;51.100;6.814;2024-02-26T06:17:26;6.80;98.20
4374;DHT22;2201;51.100;6.814;2024-02-26T06:19:53;6.80;98.20
4374;DHT22;2201;51.100;6.814;2024-02-26T06:22:21;6.70;98.20
4374;DHT22;2201;51.100;6.814;2024-02-26T06:24:48;6.70;98.20
4374;DHT22;2201;51.100;6.814;2024-02-26T06:27:15;6.70;98.20
4374;DHT22;2201;51.100;6.814;2024-02-26T06:29:42;6.70;98.20
4374;DHT22;2201;51.100;6.814;2024-02-26T06:32:08;6.60;98.20
4374;DHT22;2201;51.100;6.814;2024-02-26T06:34:35;6.60;98.20
4374;DHT22;2201;51.100;6.814;2024-02-26T06:37:03;6.60;98.20
4374;DHT22;2201;51.100;6.814;2024-02-26T06:39:32;6.60;98.20
4374;DHT22;2201;51.100;6.814;2024-02-26T06:41:59;6.60;98.20
4374;DHT22;2201;51.100;6.814;2024-02-26T06:44:27;6.60;98.20
4374;DHT22;2201;51.100;6.814;2024-02-26T06:46:57;6.60;98.20
4374;DHT22;2201;51.100;6.814;2024-02-26T06:49:25;6.50;98.20
4374;DHT22;2201;51.100;6.814;2024-02-26T06:51:52;6.50;98.20
4374;DHT22;2201;51.100;6.814;2024-02-26T06:54:19;6.50;98.20
4374;DHT22;2201;51.100;6.814;2024-02-26T06:56:47;6.50;98.20
4374;DHT22;2201;51.100;6.814;2024-02-26T06:59:14;6.50;98.20
4374;DHT22;2201;51.100;6.814;2024-02-26T07:01:41;6.50;98.20
4374;DHT22;2201;51.100;6.814;2024-02-26T07:04:08;6.40;98.20
4374;DHT22;2201;51.100;6.814;2024-02-26T07:06:36;6.50;98.20
4374;DHT22;2201;51.100;6.814;2024-02-26T07:09:03;6.50;98.20
4374;DHT22;2201;51.100;6.814;2024-02-26T07:11:30;6.40;98.20
4374;DHT22;2201;51.100;6.814;2024-02-26T07:13:58;6.40;98.20
4374;DHT22;2201;51.100;6.814;2024-02-26T07:16:26;6.40;98.20
4374;DHT22;2201;51.100;6.814;2024-02-26T07:18:53;6.40;98.20
4374;DHT22;2201;51.100;6.814;2024-02-26T07:21:20;6.40;98.20
4374;DHT22;2201;51.100;6.814;2024-02-26T07:23:47;6.40;98.20
4374;DHT22;2201;51.100;6.814;2024-02-26T07:26:14;6.40;98.20
4374;DHT22;2201;51.100;6.814;2024-02-26T07:28:43;6.40;98.20
4374;DHT22;2201;51.100;6.814;2024-02-26T07:31:11;6.40;98.20
4374;DHT22;2201;51.100;6.814;2024-02-26T07:33:38;6.40;98.20
4374;DHT22;2201;51.100;6.814;2024-02-26T07:36:05;6.40;98.20
4374;DHT22;2201;51.100;6.814;2024-02-26T07:38:32;6.40;98.20
4374;DHT22;2201;51.100;6.814;2024-02-26T07:40:59;6.40;98.20
4374;DHT22;2201;51.100;6.814;2024-02-26T07:43:25;6.40;98.20
4374;DHT22;2201;51.100;6.814;2024-02-26T07:45:52;6.40;98.20
4374;DHT22;2201;51.100;6.814;2024-02-26T07:48:21;6.40;98.20
4374;DHT22;2201;51.100;6.814;2024-02-26T07:50:48;6.50;98.20
4374;DHT22;2201;51.100;6.814;2024-02-26T07:53:14;6.50;98.20
4374;DHT22;2201;51.100;6.814;2024-02-26T07:55:42;6.50;98.20
4374;DHT22;2201;51.100;6.814;2024-02-26T07:58:09;6.50;98.20
4374;DHT22;2201;51.100;6.814;2024-02-26T08:00:36;6.50;98.20
4374;DHT22;2201;51.100;6.814;2024-02-26T08:03:03;6.50;98.20
4374;DHT22;2201;51.100;6.814;2024-02-26T08:05:31;6.60;98.20
4374;DHT22;2201;51.100;6.814;2024-02-26T08:07:58;6.60;98.20
4374;DHT22;2201;51.100;6.814;2024-02-26T08:10:25;6.60;98.20
4374;DHT22;2201;51.100;6.814;2024-02-26T08:12:52;6.60;98.20
4374;DHT22;2201;51.100;6.814;2024-02-26T08:15:19;6.70;98.20
4374;DHT22;2201;51.100;6.814;2024-02-26T08:17:45;6.70;98.20
4374;DHT22;2201;51.100;6.814;2024-02-26T08:20:13;6.70;98.20
4374;DHT22;2201;51.100;6.814;2024-02-26T08:22:42;6.70;98.20
4374;DHT22;2201;51.100;6.814;2024-02-26T08:25:09;6.70;98.20
4374;DHT22;2201;51.100;6.814;2024-02-26T08:27:36;6.70;98.20
4374;DHT22;2201;51.100;6.814;2024-02-26T08:30:04;6.70;98.20
4374;DHT22;2201;51.100;6.814;2024-02-26T08:32:31;6.70;98.20
4374;DHT22;2201;51.100;6.814;2024-02-26T08:34:58;6.70;98.20
4374;DHT22;2201;51.100;6.814;2024-02-26T08:37:25;6.70;98.20
4374;DHT22;2201;51.100;6.814;2024-02-26T08:39:54;6.70;98.20
4374;DHT22;2201;51.100;6.814;2024-02-26T08:42:20;6.70;98.20
4374;DHT22;2201;51.100;6.814;2024-02-26T08:44:49;6.80;98.20
4374;DHT22;2201;51.100;6.814;2024-02-26T08:47:16;6.80;98.20
4374;DHT22;2201;51.100;6.814;2024-02-26T08:49:44;6.80;98.20
4374;DHT22;2201;51.100;6.814;2024-02-26T08:52:11;6.80;98.20
4374;DHT22;2201;51.100;6.814;2024-02-26T08:54:39;6.80;98.20
4374;DHT22;2201;51.100;6.814;2024-02-26T08:57:07;6.80;98.20
4374;DHT22;2201;51.100;6.814;2024-02-26T08:59:35;6.70;98.20
4374;DHT22;2201;51.100;6.814;2024-02-26T09:02:02;6.70;98.20
4374;DHT22;2201;51.100;6.814;2024-02-26T09:04:29;6.80;98.20
4374;DHT22;2201;51.100;6.814;2024-02-26T09:06:56;6.80;98.20
4374;DHT22;2201;51.100;6.814;2024-02-26T09:09:23;6.80;98.20
4374;DHT22;2201;51.100;6.814;2024-02-26T09:11:52;6.80;98.20
4374;DHT22;2201;51.100;6.814;2024-02-26T09:14:22;6.80;98.20
4374;DHT22;2201;51.100;6.814;2024-02-26T09:16:49;6.80;98.20
4374;DHT22;2201;51.100;6.814;2024-02-26T09:19:17;6.80;98.20
4374;DHT22;2201;51.100;6.814;2024-02-26T09:21:43;6.80;98.20
4374;DHT22;2201;51.100;6.814;2024-02-26T09:24:11;6.80;98.20
4374;DHT22;2201;51.100;6.814;2024-02-26T09:26:38;6.80;98.20
4374;DHT22;2201;51.100;6.814;2024-02-26T09:29:05;6.80;98.20
4374;DHT22;2201;51.100;6.814;2024-02-26T09:31:35;6.80;98.20
4374;DHT22;2201;51.100;6.814;2024-02-26T09:34:02;6.80;98.20
4374;DHT22;2201;51.100;6.814;2024-02-26T09:36:29;6.80;98.20
4374;DHT22;2201;51.100;6.814;2024-02-26T09:38:59;6.80;98.20
4374;DHT22;2201;51.100;6.814;2024-02-26T09:41:28;6.80;98.20
4374;DHT22;2201;51.100;6.814;2024-02-26T09:43:56;6.80;98.20
4374;DHT22;2201;51.100;6.814;2024-02-26T09:46:25;6.90;98.20
4374;DHT22;2201;51.100;6.814;2024-02-26T09:48:53;6.90;98.20
4374;DHT22;2201;51.100;6.814;2024-02-26T09:51:22;6.90;98.20
4374;DHT22;2201;51.100;6.814;2024-02-26T09:53:51;7.00;98.20
4374;DHT22;2201;51.100;6.814;2024-02-26T09:56:19;7.00;98.20
4374;DHT22;2201;51.100;6.814;2024-02-26T09:58:46;7.00;98.20
4374;DHT22;2201;51.100;6.814;2024-02-26T10:01:18;7.00;98.20
4374;DHT22;2201;51.100;6.814;2024-02-26T10:03:50;7.00;98.20
4374;DHT22;2201;51.100;6.814;2024-02-26T10:06:20;7.00;98.20
4374;DHT22;2201;51.100;6.814;2024-02-26T10:08:47;7.00;98.20
4374;DHT22;2201;51.100;6.814;2024-02-26T10:11:15;7.00;98.20
4374;DHT22;2201;51.100;6.814;2024-02-26T10:13:43;7.00;98.20
4374;DHT22;2201;51.100;6.814;2024-02-26T10:16:10;7.00;98.20
4374;DHT22;2201;51.100;6.814;2024-02-26T10:18:47;7.10;98.20
4374;DHT22;2201;51.100;6.814;2024-02-26T10:21:16;7.10;98.20
4374;DHT22;2201;51.100;6.814;2024-02-26T10:23:45;7.10;98.20
4374;DHT22;2201;51.100;6.814;2024-02-26T10:26:14;7.10;98.20
4374;DHT22;2201;51.100;6.814;2024-02-26T10:28:42;7.10;98.20
4374;DHT22;2201;51.100;6.814;2024-02-26T10:31:10;7.10;98.20
4374;DHT22;2201;51.100;6.814;2024-02-26T10:33:38;7.10;98.20
4374;DHT22;2201;51.100;6.814;2024-02-26T10:36:07;7.20;98.20
4374;DHT22;2201;51.100;6.814;2024-02-26T10:38:35;7.20;98.20
4374;DHT22;2201;51.100;6.814;2024-02-26T10:41:04;7.20;98.20
4374;DHT22;2201;51.100;6.814;2024-02-26T10:43:31;7.20;98.20
4374;DHT22;2201;51.100;6.814;2024-02-26T10:45:58;7.20;98.20
4374;DHT22;2201;51.100;6.814;2024-02-26T10:48:25;7.20;98.20
4374;DHT22;2201;51.100;6.814;2024-02-26T10:50:52;7.30;98.20
4374;DHT22;2201;51.100;6.814;2024-02-26T10:53:21;7.30;98.20
4374;DHT22;2201;51.100;6.814;2024-02-26T10:55:52;7.30;98.20
4374;DHT22;2201;51.100;6.814;2024-02-26T10:58:21;7.40;98.20
4374;DHT22;2201;51.100;6.814;2024-02-26T11:00:51;7.40;98.20
4374;DHT22;2201;51.100;6.814;2024-02-26T11:03:19;7.50;98.20
4374;DHT22;2201;51.100;6.814;2024-02-26T11:05:48;7.60;98.20
4374;DHT22;2201;51.100;6.814;2024-02-26T11:08:16;7.60;98.20
4374;DHT22;2201;51.100;6.814;2024-02-26T11:10:47;7.60;98.20
4374;DHT22;2201;51.100;6.814;2024-02-26T11:13:15;7.60;98.20
4374;DHT22;2201;51.100;6.814;2024-02-26T11:15:46;7.60;98.20
4374;DHT22;2201;51.100;6.814;2024-02-26T11:18:15;7.60;98.20
4374;DHT22;2201;51.100;6.814;2024-02-26T11:20:42;7.60;98.20
4374;DHT22;2201;51.100;6.814;2024-02-26T11:23:10;7.60;98.20
4374;DHT22;2201;51.100;6.814;2024-02-26T11:25:37;7.60;98.20
4374;DHT22;2201;51.100;6.814;2024-02-26T11:28:08;7.70;98.20
4374;DHT22;2201;51.100;6.814;2024-02-26T11:30:39;7.70;98.20
4374;DHT22;2201;51.100;6.814;2024-02-26T11:33:10;7.70;98.20
4374;DHT22;2201;51.100;6.814;2024-02-26T11:35:38;7.80;98.20
4374;DHT22;2201;51.100;6.814;2024-02-26T11:38:06;7.80;98.20
4374;DHT22;2201;51.100;6.814;2024-02-26T11:40:36;7.80;98.20
4374;DHT22;2201;51.100;6.814;2024-02-26T11:43:05;7.80;98.20
4374;DHT22;2201;51.100;6.814;2024-02-26T11:45:49;7.90;98.20
4374;DHT22;2201;51.100;6.814;2024-02-26T11:48:22;7.90;98.20
4374;DHT22;2201;51.100;6.814;2024-02-26T11:50:51;7.90;98.20
4374;DHT22;2201;51.100;6.814;2024-02-26T11:53:23;8.00;98.20
4374;DHT22;2201;51.100;6.814;2024-02-26T11:56:13;8.10;98.20
4374;DHT22;2201;51.100;6.814;2024-02-26T11:58:40;8.10;98.20
4374;DHT22;2201;51.100;6.814;2024-02-26T12:01:41;8.00;98.20
4374;DHT22;2201;51.100;6.814;2024-02-26T12:04:12;8.00;98.20
4374;DHT22;2201;51.100;6.814;2024-02-26T12:06:42;8.00;98.20
4374;DHT22;2201;51.100;6.814;2024-02-26T12:09:09;8.00;98.20
4374;DHT22;2201;51.100;6.814;2024-02-26T12:11:38;8.00;98.20
4374;DHT22;2201;51.100;6.814;2024-02-26T12:14:05;8.00;98.20
4374;DHT22;2201;51.100;6.814;2024-02-26T12:16:37;8.00;98.20
4374;DHT22;2201;51.100;6.814;2024-02-26T12:19:05;8.00;98.20
4374;DHT22;2201;51.100;6.814;2024-02-26T12:21:35;8.00;98.20
4374;DHT22;2201;51.100;6.814;2024-02-26T12:24:12;8.00;98.20
4374;DHT22;2201;51.100;6.814;2024-02-26T12:26:39;8.00;98.20
4374;DHT22;2201;51.100;6.814;2024-02-26T12:29:06;8.00;98.20
4374;DHT22;2201;51.100;6.814;2024-02-26T12:31:34;8.00;98.20
4374;DHT22;2201;51.100;6.814;2024-02-26T12:34:02;8.00;98.20
4374;DHT22;2201;51.100;6.814;2024-02-26T12:36:30;7.90;98.20
4374;DHT22;2201;51.100;6.814;2024-02-26T12:38:59;7.90;98.20
4374;DHT22;2201;51.100;6.814;2024-02-26T12:41:27;7.90;98.20
4374;DHT22;2201;51.100;6.814;2024-02-26T12:43:55;7.90;98.20
4374;DHT22;2201;51.100;6.814;2024-02-26T12:46:24;7.90;98.20
4374;DHT22;2201;51.100;6.814;2024-02-26T12:48:51;7.90;98.20
4374;DHT22;2201;51.100;6.814;2024-02-26T12:51:19;7.90;98.20
4374;DHT22;2201;51.100;6.814;2024-02-26T12:53:47;7.90;98.20
4374;DHT22;2201;51.100;6.814;2024-02-26T12:56:17;7.90;98.20
4374;DHT22;2201;51.100;6.814;2024-02-26T12:58:45;7.90;98.20
4374;DHT22;2201;51.100;6.814;2024-02-26T13:01:15;7.90;98.20
4374;DHT22;2201;51.100;6.814;2024-02-26T13:03:43;7.90;98.20
4374;DHT22;2201;51.100;6.814;2024-02-26T13:06:10;7.90;98.20
4374;DHT22;2201;51.100;6.814;2024-02-26T13:08:38;8.00;98.20
4374;DHT22;2201;51.100;6.814;2024-02-26T13:11:05;8.00;98.20
4374;DHT22;2201;51.100;6.814;2024-02-26T13:13:33;8.00;98.20
4374;DHT22;2201;51.100;6.814;2024-02-26T13:16:03;8.00;98.20
4374;DHT22;2201;51.100;6.814;2024-02-26T13:18:31;8.00;98.20
4374;DHT22;2201;51.100;6.814;2024-02-26T13:21:09;8.00;98.20
4374;DHT22;2201;51.100;6.814;2024-02-26T13:23:37;8.00;98.20
4374;DHT22;2201;51.100;6.814;2024-02-26T13:26:04;8.10;98.20
4374;DHT22;2201;51.100;6.814;2024-02-26T13:28:33;8.00;98.20
4374;DHT22;2201;51.100;6.814;2024-02-26T13:31:00;8.00;98.20
4374;DHT22;2201;51.100;6.814;2024-02-26T13:33:30;8.00;98.20
4374;DHT22;2201;51.100;6.814;2024-02-26T13:35:58;8.00;98.20
4374;DHT22;2201;51.100;6.814;2024-02-26T13:38:26;8.00;98.20
4374;DHT22;2201;51.100;6.814;2024-02-26T13:40:54;8.00;98.20
4374;DHT22;2201;51.100;6.814;2024-02-26T13:43:21;7.90;98.20
4374;DHT22;2201;51.100;6.814;2024-02-26T13:45:50;8.00;98.20
4374;DHT22;2201;51.100;6.814;2024-02-26T13:48:17;8.00;98.20
4374;DHT22;2201;51.100;6.814;2024-02-26T13:50:44;8.10;98.20
4374;DHT22;2201;51.100;6.814;2024-02-26T13:53:12;8.10;98.20
4374;DHT22;2201;51.100;6.814;2024-02-26T13:55:40;8.00;98.20
4374;DHT22;2201;51.100;6.814;2024-02-26T13:58:10;8.00;98.20
4374;DHT22;2201;51.100;6.814;2024-02-26T14:00:38;8.00;98.20
4374;DHT22;2201;51.100;6.814;2024-02-26T14:03:07;8.00;98.20
4374;DHT22;2201;51.100;6.814;2024-02-26T14:05:34;8.10;98.20
4374;DHT22;2201;51.100;6.814;2024-02-26T14:08:01;8.20;98.20
4374;DHT22;2201;51.100;6.814;2024-02-26T14:10:29;8.20;98.20
4374;DHT22;2201;51.100;6.814;2024-02-26T14:12:57;8.30;98.20
4374;DHT22;2201;51.100;6.814;2024-02-26T14:15:24;8.30;98.20
4374;DHT22;2201;51.100;6.814;2024-02-26T14:17:51;8.30;98.20
4374;DHT22;2201;51.100;6.814;2024-02-26T14:20:23;8.40;98.20
4374;DHT22;2201;51.100;6.814;2024-02-26T14:22:51;8.30;98.20
4374;DHT22;2201;51.100;6.814;2024-02-26T14:25:18;8.30;98.20
4374;DHT22;2201;51.100;6.814;2024-02-26T14:27:46;8.30;98.20
4374;DHT22;2201;51.100;6.814;2024-02-26T14:30:14;8.30;98.20
4374;DHT22;2201;51.100;6.814;2024-02-26T14:32:41;8.20;98.20
4374;DHT22;2201;51.100;6.814;2024-02-26T14:35:09;8.20;98.20
4374;DHT22;2201;51.100;6.814;2024-02-26T14:37:38;8.20;98.20
4374;DHT22;2201;51.100;6.814;2024-02-26T14:40:06;8.20;98.20
4374;DHT22;2201;51.100;6.814;2024-02-26T14:42:34;8.20;98.20
4374;DHT22;2201;51.100;6.814;2024-02-26T14:45:01;8.30;98.20
4374;DHT22;2201;51.100;6.814;2024-02-26T14:47:28;8.30;98.20
4374;DHT22;2201;51.100;6.814;2024-02-26T14:49:55;8.30;98.20
4374;DHT22;2201;51.100;6.814;2024-02-26T14:52:22;8.40;98.20
4374;DHT22;2201;51.100;6.814;2024-02-26T14:54:50;8.40;98.20
4374;DHT22;2201;51.100;6.814;2024-02-26T14:57:18;8.40;98.20
4374;DHT22;2201;51.100;6.814;2024-02-26T14:59:45;8.50;98.20
4374;DHT22;2201;51.100;6.814;2024-02-26T15:02:13;8.60;98.20
4374;DHT22;2201;51.100;6.814;2024-02-26T15:04:40;8.60;98.20
4374;DHT22;2201;51.100;6.814;2024-02-26T15:07:07;8.60;98.20
4374;DHT22;2201;51.100;6.814;2024-02-26T15:09:34;8.60;98.20
4374;DHT22;2201;51.100;6.814;2024-02-26T15:12:03;8.60;98.20
4374;DHT22;2201;51.100;6.814;2024-02-26T15:14:33;8.60;98.20
4374;DHT22;2201;51.100;6.814;2024-02-26T15:17:00;8.60;98.20
4374;DHT22;2201;51.100;6.814;2024-02-26T15:19:28;8.60;98.20
4374;DHT22;2201;51.100;6.814;2024-02-26T15:21:55;8.60;98.20
4374;DHT22;2201;51.100;6.814;2024-02-26T15:24:21;8.60;98.20
4374;DHT22;2201;51.100;6.814;2024-02-26T15:26:48;8.70;98.20
4374;DHT22;2201;51.100;6.814;2024-02-26T15:29:17;8.70;98.20
4374;DHT22;2201;51.100;6.814;2024-02-26T15:31:44;8.70;98.20
4374;DHT22;2201;51.100;6.814;2024-02-26T15:34:11;8.70;98.20
4374;DHT22;2201;51.100;6.814;2024-02-26T15:36:38;8.70;98.20
4374;DHT22;2201;51.100;6.814;2024-02-26T15:39:05;8.60;98.20
4374;DHT22;2201;51.100;6.814;2024-02-26T15:41:33;8.60;98.20
4374;DHT22;2201;51.100;6.814;2024-02-26T15:44:00;8.50;98.20
4374;DHT22;2201;51.100;6.814;2024-02-26T15:46:28;8.50;98.20
4374;DHT22;2201;51.100;6.814;2024-02-26T16:53:39;7.90;98.20
4374;DHT22;2201;51.100;6.814;2024-02-26T16:56:09;7.90;98.20
4374;DHT22;2201;51.100;6.814;2024-02-26T16:58:36;7.80;98.20
4374;DHT22;2201;51.100;6.814;2024-02-26T17:01:04;7.80;98.20
4374;DHT22;2201;51.100;6.814;2024-02-26T17:03:34;7.80;98.20
4374;DHT22;2201;51.100;6.814;2024-02-26T17:06:01;7.80;98.20
4374;DHT22;2201;51.100;6.814;2024-02-26T17:08:28;7.80;98.20
4374;DHT22;2201;51.100;6.814;2024-02-26T17:11:00;7.80;98.20
4374;DHT22;2201;51.100;6.814;2024-02-26T17:13:27;7.80;98.20
4374;DHT22;2201;51.100;6.814;2024-02-26T17:15:55;7.70;98.20
4374;DHT22;2201;51.100;6.814;2024-02-26T17:18:22;7.70;98.20
4374;DHT22;2201;51.100;6.814;2024-02-26T17:20:49;7.70;98.20
4374;DHT22;2201;51.100;6.814;2024-02-26T17:23:16;7.70;98.20
4374;DHT22;2201;51.100;6.814;2024-02-26T17:25:43;7.70;98.20